createdAt,value
2023-06-29T00:01:11.754Z,100030.88
2023-06-29T00:06:37.673Z,100028.86
2023-06-29T00:11:40.935Z,100031.85
2023-06-29T00:16:44.581Z,100036.84
2023-06-29T00:21:49.547Z,100037.60
2023-06-29T00:26:52.744Z,100045.92
2023-06-29T00:31:55.875Z,100044.46
2023-06-29T00:36:59.327Z,100045.27
2023-06-29T00:42:04.052Z,100039.44
2023-06-29T00:47:08.164Z,100040.17
2023-06-29T00:52:11.423Z,100039.63
2023-06-29T00:57:14.618Z,100035.06
2023-06-29T01:02:18.621Z,100031.99
2023-06-29T01:07:31.666Z,100030.83
2023-06-29T01:12:35.915Z,100028.05
2023-06-29T01:17:40.740Z,100026.80
2023-06-29T01:23:00.238Z,100027.48
2023-06-29T01:28:08.082Z,100025.95
2023-06-29T01:33:12.295Z,100024.96
2023-06-29T01:38:30.223Z,100022.82
2023-06-29T01:43:34.241Z,100019.08
2023-06-29T01:48:38.921Z,100019.73
2023-06-29T01:53:42.108Z,100019.08
2023-06-29T01:58:45.518Z,100021.16
2023-06-29T02:03:49.530Z,100021.45
2023-06-29T02:08:52.850Z,100020.41
2023-06-29T02:14:13.309Z,100023.20
2023-06-29T02:19:16.627Z,100027.92
2023-06-29T02:24:21.322Z,100033.70
2023-06-29T02:29:24.601Z,100038.98
2023-06-29T02:34:31.272Z,100044.35
2023-06-29T02:39:34.700Z,100045.84
2023-06-29T02:44:38.048Z,100052.16
2023-06-29T02:49:41.433Z,100052.84
2023-06-29T02:54:44.826Z,100055.44
2023-06-29T02:59:48.219Z,100060.85
2023-06-29T03:04:51.473Z,100064.01
2023-06-29T03:09:54.945Z,100071.42
2023-06-29T03:14:58.275Z,100072.10
2023-06-29T03:20:01.714Z,100073.02
2023-06-29T03:25:07.012Z,100070.90
2023-06-29T03:30:10.747Z,100070.74
2023-06-29T03:35:14.300Z,100076.82
2023-06-29T03:40:17.864Z,100077.15
2023-06-29T03:45:21.122Z,100081.31
2023-06-29T03:50:24.467Z,100082.58
2023-06-29T03:55:27.906Z,100084.52
2023-06-29T04:00:31.337Z,100087.73
2023-06-29T04:05:34.612Z,100094.27
2023-06-29T04:10:37.983Z,100095.92
2023-06-29T04:15:41.517Z,100097.61
2023-06-29T04:20:45.014Z,100100.09
2023-06-29T04:25:48.693Z,100103.38
2023-06-29T04:30:52.217Z,100105.59
2023-06-29T04:35:56.332Z,100100.38
2023-06-29T04:41:05.541Z,100104.63
2023-06-29T04:46:09.271Z,100111.73
2023-06-29T04:51:14.283Z,100113.06
2023-06-29T04:56:17.781Z,100118.99
2023-06-29T05:01:22.045Z,100120.11
2023-06-29T05:06:25.516Z,100126.92
2023-06-29T05:11:28.849Z,100127.21
2023-06-29T05:16:32.198Z,100125.48
2023-06-29T05:21:35.534Z,100125.11
2023-06-29T05:26:38.830Z,100119.48
2023-06-29T05:31:42.031Z,100123.23
2023-06-29T05:36:45.268Z,100129.55
2023-06-29T05:41:49.557Z,100130.23
2023-06-29T05:46:52.875Z,100136.34
2023-06-29T05:51:56.214Z,100139.46
2023-06-29T05:56:59.805Z,100145.91
2023-06-29T06:02:03.723Z,100151.47
2023-06-29T06:07:07.365Z,100150.08
2023-06-29T06:12:10.938Z,100144.64
2023-06-29T06:17:14.526Z,100143.76
2023-06-29T06:22:17.831Z,100142.04
2023-06-29T06:27:21.143Z,100138.33
2023-06-29T06:32:25.791Z,100136.45
2023-06-29T06:37:29.237Z,100134.38
2023-06-29T06:42:32.458Z,100134.72
2023-06-29T06:47:39.077Z,100128.15
2023-06-29T06:52:42.282Z,100132.59
2023-06-29T06:57:45.617Z,100129.91
2023-06-29T07:02:49.049Z,100132.56
2023-06-29T07:07:54.873Z,100140.28
2023-06-29T07:12:58.144Z,100137.48
2023-06-29T07:18:01.560Z,100129.48
2023-06-29T07:28:11.373Z,100129.98
2023-06-29T07:33:14.652Z,100129.84
2023-06-29T07:38:18.146Z,100126.98
2023-06-29T07:43:21.425Z,100116.54
2023-06-29T07:48:24.857Z,100112.69
2023-06-29T07:53:28.344Z,100108.49
2023-06-29T08:03:55.429Z,100104.81
2023-06-29T08:09:01.994Z,100103.40
2023-06-29T08:14:06.302Z,100104.51
2023-06-29T08:19:09.997Z,100104.89
2023-06-29T08:24:15.673Z,100103.70
2023-06-29T08:29:21.184Z,100096.06
2023-06-29T08:34:24.474Z,100097.55
2023-06-29T08:39:27.772Z,100094.89
2023-06-29T08:44:31.339Z,100098.02
2023-06-29T08:49:36.674Z,100100.30
2023-06-29T08:54:40.526Z,100097.65
2023-06-29T08:59:45.260Z,100094.84
2023-06-29T09:04:48.426Z,100090.55
2023-06-29T09:09:51.715Z,100090.13
2023-06-29T09:14:59.588Z,100087.01
2023-06-29T09:20:14.853Z,100082.14
2023-06-29T09:25:32.213Z,100082.96
2023-06-29T09:30:39.484Z,100079.01
2023-06-29T09:35:48.655Z,100071.02
2023-06-29T09:40:55.491Z,100068.17
2023-06-29T09:46:09.932Z,100063.34
2023-06-29T09:51:24.012Z,100061.56
2023-06-29T09:56:28.399Z,100055.23
2023-06-29T10:01:32.072Z,100053.77
2023-06-29T10:06:44.975Z,100049.00
2023-06-29T10:11:54.780Z,100047.91
2023-06-29T10:16:58.305Z,100049.39
2023-06-29T10:22:12.506Z,100044.89
2023-06-29T10:27:17.181Z,100041.61
2023-06-29T10:32:29.730Z,100040.86
2023-06-29T10:37:35.144Z,100042.53
2023-06-29T10:42:38.386Z,100040.21
2023-06-29T10:47:42.270Z,100044.39
2023-06-29T10:52:49.266Z,100040.81
2023-06-29T10:57:52.962Z,100034.10
2023-06-29T11:02:56.375Z,100022.66
2023-06-29T11:07:59.995Z,100021.39
2023-06-29T11:13:08.809Z,100023.22
2023-06-29T11:18:12.099Z,100018.60
2023-06-29T11:23:15.323Z,100015.34
2023-06-29T11:28:18.722Z,100014.95
2023-06-29T11:38:46.435Z,100000.26
2023-06-29T11:43:53.201Z,99999.86
2023-06-29T11:48:59.624Z,99993.38
2023-06-29T11:54:03.051Z,99987.41
2023-06-29T11:59:08.487Z,99983.38
2023-06-29T12:04:14.453Z,99982.62
2023-06-29T12:09:17.934Z,99980.35
2023-06-29T12:14:22.169Z,99975.08
2023-06-29T12:19:34.120Z,99970.38
2023-06-29T12:24:37.776Z,99965.85
2023-06-29T12:29:44.325Z,99963.95
2023-06-29T12:34:47.554Z,99963.73
2023-06-29T12:39:50.792Z,99960.48
2023-06-29T12:44:54.337Z,99964.52
2023-06-29T12:49:58.350Z,99957.58
2023-06-29T12:55:01.719Z,99955.47
2023-06-29T13:00:06.583Z,99952.00
2023-06-29T13:05:09.895Z,99941.34
2023-06-29T13:10:13.328Z,99932.67
2023-06-29T13:15:16.927Z,99936.27
2023-06-29T13:20:20.643Z,99934.17
2023-06-29T13:25:24.564Z,99932.32
2023-06-29T13:30:28.423Z,99935.44
2023-06-29T13:35:31.617Z,99931.98
2023-06-29T13:40:35.335Z,99916.91
2023-06-29T13:45:39.512Z,99915.30
2023-06-29T13:50:42.866Z,99912.33
2023-06-29T13:55:47.182Z,99912.70
2023-06-29T14:00:51.479Z,99911.24
2023-06-29T14:05:54.683Z,99912.14
2023-06-29T14:10:58.437Z,99912.98
2023-06-29T14:16:01.707Z,99921.69
2023-06-29T14:21:04.988Z,99937.04
2023-06-29T14:26:08.310Z,99941.38
2023-06-29T14:31:11.617Z,99941.84
2023-06-29T14:36:14.900Z,99940.15
2023-06-29T14:41:18.110Z,99935.70
2023-06-29T14:46:21.385Z,99932.71
2023-06-29T14:51:24.815Z,99929.94
2023-06-29T14:56:28.023Z,99922.93
2023-06-29T15:01:32.586Z,99916.38
2023-06-29T15:06:36.095Z,99918.12
2023-06-29T15:11:39.328Z,99916.67
2023-06-29T15:16:43.352Z,99908.15
2023-06-29T15:21:46.819Z,99904.23
2023-06-29T15:26:51.008Z,99898.38
2023-06-29T15:31:54.263Z,99890.80
2023-06-29T15:36:58.073Z,99888.61
2023-06-29T15:42:01.522Z,99887.55
2023-06-29T15:47:07.495Z,99887.16
2023-06-29T15:52:11.071Z,99887.62
2023-06-29T15:57:27.205Z,99887.70
2023-06-29T16:02:31.734Z,99887.11
2023-06-29T16:07:38.389Z,99884.80
2023-06-29T16:12:42.677Z,99883.08
2023-06-29T16:17:46.474Z,99880.98
2023-06-29T16:22:50.239Z,99877.53
2023-06-29T16:27:54.416Z,99880.06
2023-06-29T16:32:57.665Z,99882.49
2023-06-29T16:38:04.961Z,99882.55
2023-06-29T16:43:08.713Z,99882.02
2023-06-29T16:48:12.901Z,99873.95
2023-06-29T16:53:16.158Z,99867.73
2023-06-29T16:58:20.169Z,99870.16
2023-06-29T17:03:23.521Z,99870.97
2023-06-29T17:08:26.844Z,99868.69
2023-06-29T17:13:30.125Z,99867.61
2023-06-29T17:18:35.810Z,99865.58
2023-06-29T17:23:39.383Z,99869.45
2023-06-29T17:28:42.548Z,99872.11
2023-06-29T17:33:54.760Z,99870.79
2023-06-29T17:38:59.263Z,99868.45
2023-06-29T17:44:02.571Z,99872.00
2023-06-29T17:49:05.976Z,99874.78
2023-06-29T17:54:09.269Z,99872.65
2023-06-29T17:59:12.512Z,99867.47
2023-06-29T18:04:15.962Z,99866.17
2023-06-29T18:09:19.252Z,99859.29
2023-06-29T18:14:22.483Z,99855.00
2023-06-29T18:19:25.734Z,99849.42
2023-06-29T18:24:29.419Z,99849.82
2023-06-29T18:29:32.653Z,99846.80
2023-06-29T18:34:35.953Z,99849.40
2023-06-29T18:39:39.921Z,99854.24
2023-06-29T18:44:43.965Z,99864.83
2023-06-29T18:49:52.355Z,99869.19
2023-06-29T18:54:57.415Z,99883.20
2023-06-29T19:00:02.387Z,99901.49
2023-06-29T19:05:06.422Z,99913.63
2023-06-29T19:10:10.290Z,99915.61
2023-06-29T19:15:14.855Z,99922.23
2023-06-29T19:20:18.362Z,99932.84
2023-06-29T19:25:21.925Z,99940.48
2023-06-29T19:30:25.226Z,99942.23
2023-06-29T19:35:29.181Z,99960.52
2023-06-29T19:40:32.578Z,99952.25
2023-06-29T19:45:36.013Z,99954.13
2023-06-29T19:50:39.379Z,99954.52
2023-06-29T19:55:42.926Z,99959.19
2023-06-29T20:00:47.079Z,99966.58
2023-06-29T20:05:50.775Z,99967.72
2023-06-29T20:10:54.109Z,99965.28
2023-06-29T20:15:57.764Z,99963.54
2023-06-29T20:21:01.805Z,99960.79
2023-06-29T20:26:05.305Z,99965.33
2023-06-29T20:31:08.661Z,99963.67
2023-06-29T20:36:14.063Z,99953.86
2023-06-29T20:41:17.584Z,99955.05
2023-06-29T20:46:21.099Z,99959.06
2023-06-29T20:51:24.669Z,99955.11
2023-06-29T20:56:28.029Z,99956.12
2023-06-29T21:01:31.496Z,99957.91
2023-06-29T21:06:35.249Z,99956.52
2023-06-29T21:11:39.794Z,99964.98
2023-06-29T21:16:45.877Z,99971.77
2023-06-29T21:21:49.346Z,99979.30
2023-06-29T21:26:53.841Z,99987.37
2023-06-29T21:32:03.864Z,100001.59
2023-06-29T21:37:11.344Z,100007.08
2023-06-29T21:42:14.731Z,99997.58
2023-06-29T21:47:17.989Z,99993.56
2023-06-29T21:52:21.613Z,99980.47
2023-06-29T21:57:24.909Z,99971.10
2023-06-29T22:02:28.265Z,99966.48
2023-06-29T22:07:33.030Z,99962.55
2023-06-29T22:12:44.296Z,99964.98
2023-06-29T22:17:50.354Z,99971.09
2023-06-29T22:22:54.041Z,99967.33
2023-06-29T22:27:57.200Z,99961.86
2023-06-29T22:33:00.544Z,99965.41
2023-06-29T22:38:08.038Z,99967.89
2023-06-29T22:43:11.765Z,99966.48
2023-06-29T22:48:14.974Z,99967.05
2023-06-29T22:53:18.406Z,99967.52
2023-06-29T22:58:25.597Z,99970.41
2023-06-29T23:03:29.139Z,99968.41
2023-06-29T23:08:33.096Z,99966.09
2023-06-29T23:13:41.629Z,99967.65
2023-06-29T23:18:44.804Z,99971.58
2023-06-29T23:23:48.272Z,99964.61
2023-06-29T23:28:54.278Z,99958.05
2023-06-29T23:33:57.568Z,99954.52
2023-06-29T23:39:00.826Z,99957.06
2023-06-29T23:44:07.681Z,99954.80
2023-06-29T23:49:19.514Z,99950.89
2023-06-29T23:54:23.217Z,99952.66
2023-06-29T23:59:26.545Z,99949.42
